createdAt,value
2022-11-21T00:01:21.808Z,73.76
2022-11-21T00:03:54.703Z,73.44
2022-11-21T00:06:27.800Z,73.46
2022-11-21T00:09:00.658Z,73.01
2022-11-21T00:11:33.663Z,73.06
2022-11-21T00:14:06.587Z,72.89
2022-11-21T00:16:40.900Z,72.72
2022-11-21T00:19:13.997Z,72.94
2022-11-21T00:21:46.985Z,72.53
2022-11-21T00:24:19.981Z,73.06
2022-11-21T00:26:52.872Z,73.63
2022-11-21T00:29:26.023Z,73.40
2022-11-21T00:32:00.231Z,73.06
2022-11-21T00:34:33.061Z,73.42
2022-11-21T00:37:05.879Z,73.55
2022-11-21T00:39:38.649Z,73.44
2022-11-21T00:42:11.477Z,73.29
2022-11-21T00:44:44.335Z,73.34
2022-11-21T00:47:18.948Z,73.04
2022-11-21T00:49:51.807Z,73.49
2022-11-21T00:52:24.614Z,72.97
2022-11-21T00:54:57.702Z,73.12
2022-11-21T00:57:30.485Z,73.25
2022-11-21T01:00:03.366Z,73.09
2022-11-21T01:02:37.750Z,72.78
2022-11-21T01:05:11.276Z,72.41
2022-11-21T01:07:44.149Z,72.99
2022-11-21T01:10:17.007Z,73.14
2022-11-21T01:12:49.883Z,73.09
2022-11-21T01:15:22.655Z,73.01
2022-11-21T01:17:57.072Z,72.88
2022-11-21T01:20:29.944Z,73.07
2022-11-21T01:23:03.121Z,72.87
2022-11-21T01:25:36.196Z,72.57
2022-11-21T01:28:09.041Z,72.77
2022-11-21T01:30:41.814Z,72.69
2022-11-21T01:33:16.423Z,72.46
2022-11-21T01:35:49.300Z,72.87
2022-11-21T01:38:22.453Z,72.91
2022-11-21T01:40:55.329Z,73.05
2022-11-21T01:43:28.264Z,72.82
2022-11-21T01:46:02.447Z,72.31
2022-11-21T01:48:43.683Z,72.29
2022-11-21T01:51:21.779Z,72.05
2022-11-21T01:54:01.253Z,71.48
2022-11-21T01:56:40.726Z,71.16
2022-11-21T01:59:20.756Z,70.75
2022-11-21T02:01:56.618Z,71.18
2022-11-21T02:04:33.995Z,71.12
2022-11-21T02:07:08.926Z,71.18
2022-11-21T02:09:47.403Z,71.09
2022-11-21T02:12:24.981Z,70.91
2022-11-21T02:14:59.753Z,71.18
2022-11-21T02:17:33.705Z,71.02
2022-11-21T02:20:10.937Z,71.15
2022-11-21T02:22:49.529Z,71.52
2022-11-21T02:25:27.342Z,71.43
2022-11-21T02:28:04.106Z,71.57
2022-11-21T02:30:39.066Z,71.36
2022-11-21T02:33:13.105Z,70.73
2022-11-21T02:35:46.001Z,71.25
2022-11-21T02:38:23.656Z,70.99
2022-11-21T02:41:04.874Z,70.38
2022-11-21T02:43:43.763Z,70.05
2022-11-21T02:46:16.764Z,69.98
2022-11-21T02:48:49.666Z,70.06
2022-11-21T02:51:23.043Z,70.13
2022-11-21T02:53:55.909Z,70.04
2022-11-21T02:56:30.437Z,69.73
2022-11-21T02:59:03.517Z,70.19
2022-11-21T03:01:36.340Z,69.75
2022-11-21T03:04:09.335Z,69.73
2022-11-21T03:06:42.165Z,69.41
2022-11-21T03:09:14.991Z,69.60
2022-11-21T03:11:49.453Z,69.27
2022-11-21T03:14:22.271Z,69.87
2022-11-21T03:16:55.265Z,69.70
2022-11-21T03:19:28.183Z,69.96
2022-11-21T03:22:01.185Z,69.81
2022-11-21T03:24:34.130Z,70.09
2022-11-21T03:27:08.760Z,70.27
2022-11-21T03:29:41.802Z,70.78
2022-11-21T03:32:14.629Z,71.10
2022-11-21T03:34:47.377Z,71.14
2022-11-21T03:37:20.335Z,70.77
2022-11-21T03:39:53.133Z,70.73
2022-11-21T03:42:27.698Z,71.11
2022-11-21T03:45:00.624Z,70.53
2022-11-21T03:47:33.491Z,71.25
2022-11-21T03:50:06.904Z,71.49
2022-11-21T03:52:39.917Z,70.98
2022-11-21T03:55:12.762Z,71.40
2022-11-21T03:57:47.334Z,71.47
2022-11-21T04:00:20.695Z,71.82
2022-11-21T04:02:53.570Z,71.88
2022-11-21T04:05:26.407Z,71.75
2022-11-21T04:07:59.426Z,71.89
2022-11-21T04:10:32.282Z,72.00
2022-11-21T04:13:06.526Z,71.71
2022-11-21T04:15:39.586Z,71.48
2022-11-21T04:18:12.941Z,71.83
2022-11-21T04:20:45.891Z,71.43
2022-11-21T04:23:18.843Z,71.62
2022-11-21T04:25:51.753Z,71.80
2022-11-21T04:28:26.157Z,71.20
2022-11-21T04:31:07.031Z,70.97
2022-11-21T04:33:43.084Z,71.25
2022-11-21T04:36:15.973Z,70.97
2022-11-21T04:38:48.986Z,70.71
2022-11-21T04:41:22.275Z,70.97
2022-11-21T04:43:56.527Z,70.60
2022-11-21T04:46:29.800Z,70.71
2022-11-21T04:49:02.908Z,70.63
2022-11-21T04:51:35.893Z,70.76
2022-11-21T04:54:08.752Z,71.05
2022-11-21T04:56:41.542Z,70.81
2022-11-21T04:59:15.768Z,70.32
2022-11-21T05:01:48.592Z,70.30
2022-11-21T05:04:21.489Z,70.01
2022-11-21T05:06:54.481Z,70.33
2022-11-21T05:09:27.608Z,70.88
2022-11-21T05:12:14.317Z,70.63
2022-11-21T05:14:48.906Z,70.65
2022-11-21T05:17:21.977Z,70.93
2022-11-21T05:19:54.959Z,70.60
2022-11-21T05:22:27.836Z,70.83
2022-11-21T05:25:00.800Z,70.59
2022-11-21T05:27:33.666Z,70.59
2022-11-21T05:30:09.362Z,70.62
2022-11-21T05:32:42.463Z,70.33
2022-11-21T05:35:15.671Z,70.65
2022-11-21T05:37:48.445Z,70.30
2022-11-21T05:40:21.491Z,70.90
2022-11-21T05:43:12.365Z,71.07
2022-11-21T05:45:46.959Z,70.93
2022-11-21T05:48:20.079Z,70.92
2022-11-21T05:50:53.047Z,71.14
2022-11-21T05:53:25.804Z,71.06
2022-11-21T05:56:03.569Z,70.87
2022-11-21T05:58:36.986Z,71.07
2022-11-21T06:01:14.623Z,70.96
2022-11-21T06:03:46.410Z,71.39
2022-11-21T06:06:23.648Z,71.45
2022-11-21T06:08:57.732Z,71.09
2022-11-21T06:11:30.615Z,70.97
2022-11-21T06:14:03.505Z,71.00
2022-11-21T06:16:38.023Z,70.59
2022-11-21T06:19:10.830Z,70.60
2022-11-21T06:21:43.737Z,70.70
2022-11-21T06:24:21.733Z,70.64
2022-11-21T06:26:55.095Z,70.43
2022-11-21T06:29:27.909Z,70.76
2022-11-21T06:32:02.530Z,70.75
2022-11-21T06:34:35.517Z,70.57
2022-11-21T06:37:08.347Z,70.56
2022-11-21T06:39:41.168Z,70.47
2022-11-21T06:42:14.367Z,70.45
2022-11-21T06:44:47.163Z,70.72
2022-11-21T06:47:22.003Z,70.70
2022-11-21T06:49:54.914Z,70.91
2022-11-21T06:52:27.871Z,70.86
2022-11-21T06:55:00.958Z,70.90
2022-11-21T06:57:33.911Z,71.61
2022-11-21T07:00:08.280Z,71.00
2022-11-21T07:02:42.458Z,70.94
2022-11-21T07:05:15.480Z,71.25
2022-11-21T07:07:48.362Z,71.45
2022-11-21T07:10:21.511Z,71.49
2022-11-21T07:13:15.962Z,71.39
2022-11-21T07:15:50.367Z,71.40
2022-11-21T07:18:24.978Z,71.34
2022-11-21T07:21:00.515Z,71.34
2022-11-21T07:23:34.751Z,71.26
2022-11-21T07:26:09.351Z,71.41
2022-11-21T07:28:42.490Z,71.89
2022-11-21T07:31:15.346Z,71.94
2022-11-21T07:33:49.654Z,71.90
2022-11-21T07:36:22.746Z,71.91
2022-11-21T07:38:55.820Z,71.75
2022-11-21T07:41:29.275Z,72.03
2022-11-21T07:44:02.459Z,72.21
2022-11-21T07:46:35.420Z,71.91
2022-11-21T07:49:09.682Z,71.52
2022-11-21T07:51:42.960Z,71.60
2022-11-21T07:54:15.909Z,72.34
2022-11-21T07:56:48.722Z,71.90
2022-11-21T07:59:21.604Z,72.01
2022-11-21T08:01:54.723Z,71.99
2022-11-21T08:04:31.891Z,71.76
2022-11-21T08:07:05.572Z,71.63
2022-11-21T08:09:39.910Z,71.66
2022-11-21T08:12:13.898Z,72.06
2022-11-21T08:14:47.030Z,72.02
2022-11-21T08:17:20.067Z,72.45
2022-11-21T08:19:54.347Z,72.14
2022-11-21T08:22:27.638Z,71.85
2022-11-21T08:25:00.476Z,71.52
2022-11-21T08:27:33.553Z,71.08
2022-11-21T08:30:08.505Z,70.94
2022-11-21T08:32:41.756Z,70.32
2022-11-21T08:35:16.207Z,70.02
2022-11-21T08:37:49.269Z,69.65
2022-11-21T08:40:22.228Z,69.83
2022-11-21T08:42:58.790Z,69.26
2022-11-21T08:45:33.006Z,69.52
2022-11-21T08:48:10.292Z,69.22
2022-11-21T08:50:44.521Z,69.18
2022-11-21T08:53:17.675Z,69.18
2022-11-21T08:55:50.530Z,69.66
2022-11-21T08:58:23.436Z,69.44
2022-11-21T09:00:56.505Z,69.81
2022-11-21T09:03:31.249Z,69.24
2022-11-21T09:06:06.486Z,69.41
2022-11-21T09:08:39.837Z,69.11
2022-11-21T09:11:12.730Z,69.51
2022-11-21T09:14:06.185Z,70.26
2022-11-21T09:17:01.824Z,70.00
2022-11-21T09:19:35.316Z,69.89
2022-11-21T09:22:09.511Z,69.30
2022-11-21T09:24:42.325Z,68.91
2022-11-21T09:27:15.237Z,69.43
2022-11-21T09:29:52.433Z,69.02
2022-11-21T09:32:27.233Z,68.67
2022-11-21T09:35:00.049Z,67.66
2022-11-21T09:37:37.756Z,67.13
2022-11-21T09:40:14.507Z,67.31
2022-11-21T09:43:26.662Z,67.92
2022-11-21T09:46:04.716Z,68.38
2022-11-21T09:48:48.165Z,67.90
2022-11-21T09:51:22.541Z,68.08
2022-11-21T09:54:01.772Z,67.86
2022-11-21T09:56:39.494Z,67.91
2022-11-21T09:59:26.664Z,67.33
2022-11-21T10:01:59.691Z,67.13
2022-11-21T10:04:32.627Z,67.98
2022-11-21T10:07:10.409Z,67.32
2022-11-21T10:09:57.150Z,66.94
2022-11-21T10:12:38.598Z,67.50
2022-11-21T10:15:30.585Z,67.26
2022-11-21T10:18:09.699Z,68.78
2022-11-21T10:20:53.996Z,67.65
2022-11-21T10:23:54.300Z,68.26
2022-11-21T10:26:42.210Z,67.35
2022-11-21T10:29:21.157Z,67.05
2022-11-21T10:31:57.111Z,67.01
2022-11-21T10:34:33.834Z,67.62
2022-11-21T10:37:14.536Z,67.27
2022-11-21T10:39:51.022Z,67.51
2022-11-21T10:42:33.494Z,67.08
2022-11-21T10:45:19.295Z,66.94
2022-11-21T10:47:55.177Z,66.70
2022-11-21T10:50:48.084Z,65.75
2022-11-21T10:53:40.483Z,66.11
2022-11-21T10:56:15.949Z,66.10
2022-11-21T10:58:52.254Z,66.32
2022-11-21T11:01:30.841Z,66.32
2022-11-21T11:07:22.201Z,65.38
2022-11-21T11:10:16.129Z,65.09
2022-11-21T11:13:30.871Z,65.78
2022-11-21T11:16:06.156Z,65.19
2022-11-21T11:18:42.731Z,64.71
2022-11-21T11:21:21.593Z,64.13
2022-11-21T11:23:56.001Z,64.17
2022-11-21T11:26:30.995Z,64.20
2022-11-21T11:29:11.737Z,63.64
2022-11-21T11:31:54.387Z,63.26
2022-11-21T11:34:30.623Z,63.78
2022-11-21T11:37:12.967Z,63.25
2022-11-21T11:39:56.881Z,63.61
2022-11-21T11:43:04.636Z,63.23
2022-11-21T11:46:14.454Z,62.63
2022-11-21T11:49:17.504Z,62.80
2022-11-21T11:51:48.200Z,63.04
2022-11-21T11:54:24.965Z,63.37
2022-11-21T11:56:58.765Z,63.42
2022-11-21T11:59:38.542Z,63.08
2022-11-21T12:02:19.676Z,63.25
2022-11-21T12:05:02.769Z,63.58
2022-11-21T12:11:00.936Z,63.17
2022-11-21T12:13:37.214Z,62.97
2022-11-21T12:16:14.438Z,63.24
2022-11-21T12:18:53.490Z,63.00
2022-11-21T12:21:27.887Z,63.09
2022-11-21T12:24:04.014Z,62.90
2022-11-21T12:26:50.432Z,63.12
2022-11-21T12:29:38.277Z,63.21
2022-11-21T12:32:27.587Z,62.02
2022-11-21T12:35:27.172Z,62.50
2022-11-21T12:38:10.156Z,62.54
2022-11-21T12:40:53.581Z,62.17
2022-11-21T12:43:34.464Z,62.62
2022-11-21T12:46:18.624Z,62.40
2022-11-21T12:49:17.299Z,61.95
2022-11-21T12:52:39.206Z,62.54
2022-11-21T12:55:35.615Z,62.53
2022-11-21T12:58:22.255Z,61.66
2022-11-21T13:01:19.663Z,62.25
2022-11-21T13:04:01.247Z,62.18
2022-11-21T13:06:40.071Z,62.58
2022-11-21T13:09:17.688Z,61.90
2022-11-21T13:12:02.652Z,61.05
2022-11-21T13:14:43.084Z,62.31
2022-11-21T13:17:37.323Z,62.18
2022-11-21T13:20:20.796Z,62.78
2022-11-21T13:22:56.460Z,63.43
2022-11-21T13:25:52.977Z,62.98
2022-11-21T13:28:49.680Z,63.08
2022-11-21T13:31:31.359Z,62.42
2022-11-21T13:34:05.760Z,62.51
2022-11-21T13:36:45.570Z,62.57
2022-11-21T13:39:30.341Z,61.53
2022-11-21T13:42:23.606Z,61.98
2022-11-21T13:44:58.449Z,62.11
2022-11-21T13:48:03.691Z,61.76
2022-11-21T13:51:05.242Z,61.45
2022-11-21T13:53:58.176Z,60.94
2022-11-21T13:56:38.268Z,61.26
2022-11-21T13:59:34.094Z,61.12
2022-11-21T14:02:27.359Z,61.34
2022-11-21T14:05:20.886Z,61.90
2022-11-21T14:07:53.883Z,62.34
2022-11-21T14:10:34.579Z,61.57
2022-11-21T14:13:07.539Z,62.22
2022-11-21T14:15:51.456Z,61.67
2022-11-21T14:18:27.947Z,62.16
2022-11-21T14:21:02.277Z,62.31
2022-11-21T14:23:36.369Z,62.44
2022-11-21T14:26:16.058Z,61.69
2022-11-21T14:28:49.446Z,61.94
2022-11-21T14:31:22.320Z,61.87
2022-11-21T14:33:59.300Z,61.70
2022-11-21T14:36:33.799Z,62.83
2022-11-21T14:42:05.144Z,62.48
2022-11-21T14:44:38.178Z,62.87
2022-11-21T14:47:25.632Z,62.50
2022-11-21T14:50:07.401Z,62.51
2022-11-21T14:52:40.567Z,63.55
2022-11-21T14:55:32.466Z,62.03
2022-11-21T14:58:07.020Z,64.54
2022-11-21T15:03:33.031Z,62.59
2022-11-21T15:06:12.000Z,62.79
2022-11-21T15:09:39.653Z,63.24
2022-11-21T15:11:41.255Z,63.07
2022-11-21T15:14:23.072Z,62.98
2022-11-21T15:16:57.143Z,63.50
2022-11-21T15:19:32.817Z,63.56
2022-11-21T15:22:07.309Z,63.53
2022-11-21T15:24:43.118Z,63.72
2022-11-21T15:27:31.993Z,63.39
2022-11-21T15:30:24.671Z,63.84
2022-11-21T15:33:05.274Z,64.07
2022-11-21T15:35:56.761Z,63.67
2022-11-21T15:38:33.971Z,64.50
2022-11-21T15:41:25.854Z,64.55
2022-11-21T15:44:20.713Z,64.02
2022-11-21T15:46:53.853Z,64.89
2022-11-21T15:49:34.094Z,64.73
2022-11-21T15:52:13.508Z,64.85
2022-11-21T15:54:48.406Z,65.37
2022-11-21T15:57:22.236Z,65.34
2022-11-21T15:59:55.435Z,66.07
2022-11-21T16:02:28.436Z,65.93
2022-11-21T16:05:01.371Z,66.04
2022-11-21T16:07:34.393Z,66.71
2022-11-21T16:10:18.390Z,66.52
2022-11-21T16:12:52.516Z,66.64
2022-11-21T16:15:25.573Z,66.64
2022-11-21T16:17:58.419Z,66.54
2022-11-21T16:20:31.278Z,66.50
2022-11-21T16:23:05.604Z,66.78
2022-11-21T16:25:51.288Z,66.69
2022-11-21T16:28:24.088Z,66.83
2022-11-21T16:30:58.545Z,67.41
2022-11-21T16:33:31.812Z,67.12
2022-11-21T16:36:04.610Z,67.56
2022-11-21T16:38:37.450Z,67.62
2022-11-21T16:41:11.747Z,67.55
2022-11-21T16:43:47.852Z,67.08
2022-11-21T16:46:22.033Z,67.61
2022-11-21T16:49:00.571Z,67.24
2022-11-21T16:51:33.548Z,67.69
2022-11-21T16:54:09.162Z,67.55
2022-11-21T16:56:43.737Z,67.62
2022-11-21T16:59:16.609Z,68.04
2022-11-21T17:01:49.735Z,67.82
2022-11-21T17:04:22.577Z,68.03
2022-11-21T17:06:55.431Z,68.03
2022-11-21T17:09:28.290Z,67.93
2022-11-21T17:12:02.441Z,67.77
2022-11-21T17:14:35.456Z,67.78
2022-11-21T17:17:08.242Z,67.31
2022-11-21T17:19:41.088Z,67.64
2022-11-21T17:22:13.945Z,67.42
2022-11-21T17:24:47.229Z,67.61
2022-11-21T17:27:21.599Z,67.06
2022-11-21T17:29:54.571Z,67.25
2022-11-21T17:32:27.394Z,67.64
2022-11-21T17:35:00.294Z,67.68
2022-11-21T17:37:33.093Z,67.76
2022-11-21T17:40:10.999Z,67.53
2022-11-21T17:42:45.226Z,67.28
2022-11-21T17:45:18.144Z,67.29
2022-11-21T17:47:50.972Z,67.11
2022-11-21T17:50:23.793Z,67.56
2022-11-21T17:52:58.279Z,67.72
2022-11-21T17:55:31.154Z,67.69
2022-11-21T17:58:05.994Z,67.70
2022-11-21T18:00:38.766Z,68.11
2022-11-21T18:03:11.504Z,67.52
2022-11-21T18:05:47.496Z,67.62
2022-11-21T18:08:24.240Z,68.26
2022-11-21T18:10:57.048Z,68.22
2022-11-21T18:13:32.348Z,68.27
2022-11-21T18:16:07.425Z,68.40
2022-11-21T18:18:40.640Z,68.46
2022-11-21T18:21:15.569Z,68.19
2022-11-21T18:23:48.566Z,68.12
2022-11-21T18:26:24.085Z,68.04
2022-11-21T18:29:34.561Z,68.29
2022-11-21T18:31:53.216Z,68.75
2022-11-21T18:34:26.161Z,68.48
2022-11-21T18:36:59.060Z,68.75
2022-11-21T18:39:32.155Z,68.80
2022-11-21T18:42:05.321Z,69.09
2022-11-21T18:44:39.819Z,68.50
2022-11-21T18:47:20.577Z,68.79
2022-11-21T18:49:53.827Z,68.50
2022-11-21T18:52:27.342Z,68.70
2022-11-21T18:55:00.213Z,68.37
2022-11-21T18:57:33.004Z,68.87
2022-11-21T19:00:08.960Z,68.50
2022-11-21T19:02:41.831Z,68.67
2022-11-21T19:05:20.219Z,68.72
2022-11-21T19:07:53.628Z,68.96
2022-11-21T19:10:42.519Z,68.53
2022-11-21T19:13:16.578Z,68.59
2022-11-21T19:15:50.872Z,68.71
2022-11-21T19:18:23.747Z,68.84
2022-11-21T19:20:56.550Z,68.87
2022-11-21T19:23:29.487Z,68.44
2022-11-21T19:26:02.707Z,68.95
2022-11-21T19:28:35.538Z,69.18
2022-11-21T19:31:12.579Z,68.71
2022-11-21T19:33:45.406Z,69.46
2022-11-21T19:36:20.993Z,69.10
2022-11-21T19:38:53.844Z,69.17
2022-11-21T19:41:27.082Z,68.50
2022-11-21T19:44:01.358Z,68.82
2022-11-21T19:46:38.839Z,69.00
2022-11-21T19:49:12.668Z,68.73
2022-11-21T19:51:45.542Z,69.39
2022-11-21T19:54:18.506Z,69.13
2022-11-21T19:56:51.273Z,69.39
2022-11-21T19:59:24.091Z,69.24
2022-11-21T20:01:58.595Z,69.17
2022-11-21T20:04:31.643Z,69.11
2022-11-21T20:07:07.679Z,69.24
2022-11-21T20:09:41.231Z,69.31
2022-11-21T20:12:14.357Z,69.40
2022-11-21T20:14:47.225Z,69.25
2022-11-21T20:17:21.389Z,69.27
2022-11-21T20:19:54.208Z,69.71
2022-11-21T20:22:27.129Z,69.61
2022-11-21T20:25:00.050Z,69.63
2022-11-21T20:27:32.886Z,69.47
2022-11-21T20:30:07.282Z,69.38
2022-11-21T20:32:41.527Z,69.43
2022-11-21T20:35:14.514Z,69.53
2022-11-21T20:37:47.606Z,69.34
2022-11-21T20:40:20.571Z,69.38
2022-11-21T20:42:53.948Z,69.58
2022-11-21T20:48:21.228Z,69.38
2022-11-21T20:53:52.949Z,69.57
2022-11-21T20:56:27.710Z,68.98
2022-11-21T20:59:00.647Z,69.51
2022-11-21T21:01:34.063Z,69.31
2022-11-21T21:04:09.344Z,69.07
2022-11-21T21:06:42.221Z,69.33
2022-11-21T21:09:15.051Z,69.80
2022-11-21T21:11:53.008Z,69.76
2022-11-21T21:14:26.431Z,69.78
2022-11-21T21:16:59.324Z,69.66
2022-11-21T21:19:33.735Z,69.73
2022-11-21T21:22:09.074Z,69.83
2022-11-21T21:24:41.968Z,69.51
2022-11-21T21:27:14.801Z,70.07
2022-11-21T21:29:47.665Z,70.19
2022-11-21T21:32:20.491Z,69.70
2022-11-21T21:34:54.673Z,69.91
2022-11-21T21:37:27.491Z,70.11
2022-11-21T21:40:00.310Z,70.36
2022-11-21T21:42:33.160Z,70.08
2022-11-21T21:45:06.406Z,70.34
2022-11-21T21:47:39.292Z,70.29
2022-11-21T21:50:15.984Z,70.26
2022-11-21T21:52:49.068Z,70.02
2022-11-21T21:55:21.890Z,70.03
2022-11-21T21:57:54.738Z,70.25
2022-11-21T22:00:27.707Z,70.34
2022-11-21T22:03:00.684Z,70.40
2022-11-21T22:05:34.862Z,70.66
2022-11-21T22:08:07.870Z,70.59
2022-11-21T22:10:40.667Z,70.93
2022-11-21T22:13:13.787Z,70.65
2022-11-21T22:15:46.551Z,70.99
2022-11-21T22:18:19.367Z,70.28
2022-11-21T22:20:53.846Z,70.68
2022-11-21T22:23:26.789Z,70.56
2022-11-21T22:25:59.656Z,70.69
2022-11-21T22:28:32.482Z,70.97
2022-11-21T22:31:05.703Z,70.86
2022-11-21T22:33:39.893Z,71.12
2022-11-21T22:36:15.611Z,70.88
2022-11-21T22:38:49.015Z,71.49
2022-11-21T22:41:23.925Z,70.76
2022-11-21T22:43:58.682Z,70.99
2022-11-21T22:46:32.578Z,71.17
2022-11-21T22:49:05.428Z,71.36
2022-11-21T22:51:39.599Z,71.11
2022-11-21T22:54:13.126Z,71.35
2022-11-21T22:56:45.949Z,72.11
2022-11-21T22:59:18.817Z,71.68
2022-11-21T23:01:51.664Z,71.77
2022-11-21T23:04:24.606Z,71.72
2022-11-21T23:06:58.871Z,71.75
2022-11-21T23:09:31.971Z,71.70
2022-11-21T23:12:05.194Z,72.37
2022-11-21T23:14:38.039Z,72.09
2022-11-21T23:17:10.884Z,71.62
2022-11-21T23:19:43.707Z,72.10
2022-11-21T23:22:17.987Z,71.89
2022-11-21T23:24:50.884Z,72.02
2022-11-21T23:27:23.713Z,72.25
2022-11-21T23:29:56.507Z,71.85
2022-11-21T23:32:29.283Z,71.63
2022-11-21T23:35:02.318Z,71.56
2022-11-21T23:37:36.843Z,71.44
2022-11-21T23:40:11.091Z,71.79
2022-11-21T23:42:46.227Z,71.61
2022-11-21T23:45:19.068Z,71.50
2022-11-21T23:47:51.887Z,71.97
2022-11-21T23:50:24.942Z,72.04
2022-11-21T23:52:59.107Z,71.88
2022-11-21T23:55:32.598Z,71.79
2022-11-21T23:58:05.627Z,72.03
